Time;durP1;ratioP1;P1;durP2;ratioP2;P2;SDS_P1;SDS_P2;PMS_P1;PMS_P2;Temp;Humidity;BMP_temperature;BMP_pressure;BME280_temperature;BME280_humidity;BME280_pressure;Samples;Min_cycle;Max_cycle;Signal;HPM_P1;HPM_P2
2021/07/07 00:01:35;;;;;;;13.38;6.03;;;24.10;73.80;;;;;;5076856;28;20036;-43
2021/07/07 00:04:01;;;;;;;9.00;6.35;;;24.00;73.90;;;;;;5076532;28;20032;-47
2021/07/07 00:06:26;;;;;;;8.93;5.85;;;23.90;73.80;;;;;;5076706;28;20039;-46
2021/07/07 00:08:52;;;;;;;8.65;6.05;;;23.90;73.90;;;;;;5076492;28;20027;-43
2021/07/07 00:11:18;;;;;;;6.75;6.05;;;23.90;74.00;;;;;;5076695;28;20115;-46
2021/07/07 00:13:44;;;;;;;8.13;5.72;;;23.90;74.10;;;;;;5076264;28;20094;-46
2021/07/07 00:16:10;;;;;;;9.65;5.60;;;23.80;74.20;;;;;;5076709;28;20056;-48
2021/07/07 00:18:36;;;;;;;8.35;5.50;;;23.80;74.00;;;;;;5076516;28;20059;-46
2021/07/07 00:21:02;;;;;;;8.85;5.40;;;23.80;73.60;;;;;;5076917;28;20131;-44
2021/07/07 00:23:30;;;;;;;9.23;5.30;;;23.80;73.30;;;;;;5076184;28;20196;-46
2021/07/07 00:25:56;;;;;;;7.43;5.03;;;23.70;73.30;;;;;;5076417;28;20118;-43
2021/07/07 00:28:24;;;;;;;6.50;4.57;;;23.70;73.30;;;;;;5076396;28;20032;-43
2021/07/07 00:30:51;;;;;;;6.45;4.82;;;23.70;73.00;;;;;;5076534;28;20329;-47
2021/07/07 00:33:18;;;;;;;9.63;4.50;;;23.60;72.60;;;;;;5075966;28;20302;-46
2021/07/07 00:35:44;;;;;;;5.00;4.15;;;23.60;72.10;;;;;;5076560;28;20434;-48
2021/07/07 00:38:12;;;;;;;5.97;3.70;;;23.50;71.70;;;;;;5075970;28;20036;-42
2021/07/07 00:40:39;;;;;;;5.18;3.67;;;23.50;71.60;;;;;;5076394;28;20048;-46
2021/07/07 00:43:04;;;;;;;7.05;4.13;;;23.50;71.40;;;;;;5075926;28;20028;-45
2021/07/07 00:45:30;;;;;;;6.25;3.90;;;23.50;71.00;;;;;;5076395;28;20082;-47
2021/07/07 00:47:56;;;;;;;4.20;3.80;;;23.40;70.60;;;;;;5075622;28;20028;-42
2021/07/07 00:50:23;;;;;;;5.15;3.65;;;23.40;70.50;;;;;;5076230;28;20020;-49
2021/07/07 00:52:48;;;;;;;7.05;3.60;;;23.40;69.90;;;;;;5075567;28;20032;-44
2021/07/07 00:55:16;;;;;;;5.35;3.55;;;23.30;70.00;;;;;;5076376;28;20016;-47
2021/07/07 00:57:44;;;;;;;5.43;3.55;;;23.30;70.00;;;;;;5075508;28;20036;-46
2021/07/07 01:00:12;;;;;;;4.35;3.95;;;23.30;69.80;;;;;;5076134;28;20024;-49
2021/07/07 01:02:41;;;;;;;4.20;3.65;;;23.30;69.80;;;;;;5075769;28;20437;-45
2021/07/07 01:05:09;;;;;;;8.55;4.00;;;23.20;70.10;;;;;;5076049;28;20040;-47
2021/07/07 01:07:35;;;;;;;6.05;3.63;;;23.20;70.00;;;;;;5075341;28;20029;-43
2021/07/07 01:10:02;;;;;;;4.65;3.92;;;23.20;70.00;;;;;;5075981;28;20029;-50
2021/07/07 01:12:28;;;;;;;5.85;3.60;;;23.10;70.00;;;;;;5075713;28;20025;-45
2021/07/07 01:14:54;;;;;;;3.72;3.00;;;23.10;69.80;;;;;;5076185;28;20029;-43
2021/07/07 01:17:20;;;;;;;4.75;3.95;;;23.10;69.60;;;;;;5075482;28;20089;-45
2021/07/07 01:19:46;;;;;;;6.22;3.90;;;23.10;69.80;;;;;;5075891;28;20056;-45
2021/07/07 01:22:13;;;;;;;5.10;3.85;;;23.10;70.10;;;;;;5075370;28;20166;-44
2021/07/07 01:24:38;;;;;;;4.68;3.42;;;23.10;70.40;;;;;;5076055;28;20157;-43
2021/07/07 01:27:04;;;;;;;5.63;3.63;;;23.10;70.40;;;;;;5075509;28;20111;-46
2021/07/07 01:29:30;;;;;;;9.10;4.50;;;23.10;70.40;;;;;;5075545;28;20388;-44
2021/07/07 01:31:56;;;;;;;5.45;4.13;;;23.00;70.50;;;;;;5075851;28;20035;-46
2021/07/07 01:34:22;;;;;;;5.20;4.47;;;23.00;70.80;;;;;;5075666;28;20344;-44
2021/07/07 01:36:47;;;;;;;4.80;3.90;;;23.00;71.00;;;;;;5075267;28;20033;-45
2021/07/07 01:39:13;;;;;;;8.82;4.20;;;23.00;70.90;;;;;;5075349;28;20023;-47
2021/07/07 01:41:39;;;;;;;4.90;4.35;;;23.00;70.70;;;;;;5074873;28;20053;-45
2021/07/07 01:44:06;;;;;;;8.18;3.97;;;23.00;70.80;;;;;;5074283;28;20067;-47
2021/07/07 01:46:32;;;;;;;5.18;4.22;;;23.00;71.60;;;;;;5077808;28;20036;-46
2021/07/07 01:48:58;;;;;;;6.93;4.70;;;23.00;71.30;;;;;;5077939;28;20021;-46
2021/07/07 01:51:24;;;;;;;10.00;4.95;;;23.10;71.50;;;;;;5078230;28;20021;-45
2021/07/07 01:53:50;;;;;;;7.65;4.25;;;23.10;71.60;;;;;;5077534;28;20044;-45
2021/07/07 01:56:16;;;;;;;6.78;4.78;;;23.10;71.50;;;;;;5077881;28;20025;-45
2021/07/07 01:58:41;;;;;;;7.55;4.72;;;23.10;71.60;;;;;;5077821;28;20036;-46
2021/07/07 02:01:08;;;;;;;5.22;4.28;;;23.10;71.50;;;;;;5078302;28;20059;-44
2021/07/07 02:03:33;;;;;;;6.60;4.60;;;23.10;71.60;;;;;;5077773;28;20341;-46
2021/07/07 02:05:59;;;;;;;5.82;4.57;;;23.10;71.70;;;;;;5077945;28;20036;-48
2021/07/07 02:08:25;;;;;;;6.70;4.10;;;23.00;71.30;;;;;;5077694;28;20028;-48
2021/07/07 02:10:51;;;;;;;7.38;4.70;;;23.00;71.10;;;;;;5078195;28;20032;-50
2021/07/07 02:13:16;;;;;;;5.72;3.55;;;23.00;71.10;;;;;;5077683;28;20028;-48
2021/07/07 02:15:42;;;;;;;6.60;4.60;;;23.00;71.10;;;;;;5077989;28;20432;-43
2021/07/07 02:18:09;;;;;;;6.88;4.22;;;23.00;71.10;;;;;;5077613;28;20376;-44
2021/07/07 02:20:40;;;;;;;6.72;4.10;;;23.00;70.90;;;;;;5078280;28;20039;-47
2021/07/07 02:23:07;;;;;;;6.25;4.40;;;23.00;70.70;;;;;;5077341;28;20051;-44
2021/07/07 02:25:35;;;;;;;5.18;4.30;;;23.00;70.70;;;;;;5077856;28;20029;-48
2021/07/07 02:28:02;;;;;;;6.40;3.97;;;23.00;70.80;;;;;;5077245;28;20318;-49
2021/07/07 02:30:31;;;;;;;6.07;4.50;;;23.00;70.90;;;;;;5077911;28;20013;-48
2021/07/07 02:32:57;;;;;;;8.70;4.13;;;23.00;70.60;;;;;;5077009;28;20037;-48
2021/07/07 02:35:29;;;;;;;8.73;4.28;;;23.00;70.40;;;;;;5077814;28;20028;-43
2021/07/07 02:37:55;;;;;;;8.73;4.40;;;23.00;70.30;;;;;;5077163;28;20115;-46
2021/07/07 02:40:24;;;;;;;7.88;4.13;;;22.90;70.00;;;;;;5035931;28;1197424;-49
2021/07/07 02:42:50;;;;;;;4.55;3.67;;;23.00;70.00;;;;;;5078149;28;20036;-46
2021/07/07 02:45:17;;;;;;;4.55;3.47;;;22.90;69.80;;;;;;5078890;28;20052;-45
2021/07/07 02:47:44;;;;;;;5.65;4.13;;;22.90;69.60;;;;;;5078016;28;20048;-46
2021/07/07 02:50:13;;;;;;;5.15;4.22;;;22.90;69.50;;;;;;5078730;28;20092;-43
2021/07/07 02:52:40;;;;;;;9.90;4.30;;;22.90;69.50;;;;;;5078066;28;20025;-42
2021/07/07 02:55:10;;;;;;;5.50;3.80;;;22.90;69.40;;;;;;5078673;28;20029;-45
2021/07/07 03:00:21;;;;;;;4.32;3.70;;;22.90;69.10;;;;;;5078806;28;20051;-46
2021/07/07 03:02:47;;;;;;;5.43;3.50;;;22.90;69.10;;;;;;5077907;28;20036;-45
2021/07/07 03:05:13;;;;;;;5.50;3.80;;;22.90;69.10;;;;;;5078365;28;20102;-45
2021/07/07 03:07:39;;;;;;;4.80;3.45;;;22.90;69.00;;;;;;5077586;28;20033;-45
2021/07/07 03:10:10;;;;;;;4.57;3.85;;;22.90;68.90;;;;;;5078365;28;20346;-45
2021/07/07 03:12:36;;;;;;;5.88;3.65;;;22.90;68.80;;;;;;5077691;28;20103;-44
2021/07/07 03:15:04;;;;;;;7.85;3.60;;;22.80;69.10;;;;;;5078141;28;20523;-46
2021/07/07 03:17:29;;;;;;;5.82;3.90;;;22.80;69.00;;;;;;5077510;28;20090;-48
2021/07/07 03:19:55;;;;;;;5.05;4.15;;;22.80;69.10;;;;;;5078065;28;20033;-48
2021/07/07 03:22:21;;;;;;;7.20;3.78;;;22.80;69.20;;;;;;5077915;28;20123;-45
2021/07/07 03:24:46;;;;;;;5.55;4.18;;;22.80;69.30;;;;;;5078135;28;20029;-48
2021/07/07 03:27:12;;;;;;;6.38;3.95;;;22.80;69.30;;;;;;5077610;28;20040;-44
2021/07/07 03:29:38;;;;;;;4.18;3.78;;;22.80;69.30;;;;;;5077906;28;20041;-45
2021/07/07 03:32:04;;;;;;;5.35;4.03;;;22.80;69.20;;;;;;5077366;28;20029;-43
2021/07/07 03:34:30;;;;;;;6.30;4.18;;;22.80;68.90;;;;;;5077360;28;20040;-43
2021/07/07 03:36:55;;;;;;;5.22;3.88;;;22.80;68.80;;;;;;5077282;28;20032;-46
2021/07/07 03:39:21;;;;;;;4.00;3.60;;;22.80;68.80;;;;;;5077328;28;20131;-48
2021/07/07 03:41:46;;;;;;;7.22;4.07;;;22.80;68.80;;;;;;5076911;28;20101;-46
2021/07/07 03:44:12;;;;;;;5.07;3.90;;;22.80;68.70;;;;;;5076722;28;20043;-43
2021/07/07 03:46:38;;;;;;;5.63;4.15;;;22.90;68.80;;;;;;5077241;28;20107;-46
2021/07/07 03:49:04;;;;;;;8.55;4.40;;;22.90;68.50;;;;;;5076756;28;20354;-43
2021/07/07 03:51:30;;;;;;;5.20;4.03;;;22.90;68.50;;;;;;5076908;28;20107;-45
2021/07/07 03:53:56;;;;;;;5.95;4.05;;;22.90;68.20;;;;;;5076684;28;20025;-48
2021/07/07 03:56:21;;;;;;;6.75;4.13;;;23.00;68.20;;;;;;5076666;28;20032;-47
2021/07/07 03:58:47;;;;;;;4.47;3.85;;;23.00;68.60;;;;;;5076493;28;20109;-46
2021/07/07 04:01:13;;;;;;;7.13;4.18;;;23.10;67.90;;;;;;5077278;28;20123;-44
2021/07/07 04:03:39;;;;;;;5.32;3.70;;;23.10;67.90;;;;;;5076467;28;20021;-50
2021/07/07 04:06:05;;;;;;;5.07;3.85;;;23.20;67.60;;;;;;5075740;28;20329;-44
2021/07/07 04:08:32;;;;;;;6.95;3.78;;;23.20;67.30;;;;;;5075917;28;20519;-44
2021/07/07 04:10:58;;;;;;;6.65;3.53;;;23.20;67.10;;;;;;5076732;28;20032;-46
2021/07/07 04:13:27;;;;;;;5.28;3.65;;;23.30;67.10;;;;;;5076322;28;20033;-45
2021/07/07 04:15:53;;;;;;;7.07;4.10;;;23.30;67.10;;;;;;5076893;28;20063;-43
2021/07/07 04:18:19;;;;;;;8.48;3.90;;;23.30;67.00;;;;;;5076104;28;20413;-44
2021/07/07 04:20:44;;;;;;;4.43;3.28;;;23.30;66.80;;;;;;5076853;28;20389;-45
2021/07/07 04:23:10;;;;;;;13.23;4.38;;;23.40;66.80;;;;;;5076114;28;20044;-46
2021/07/07 04:25:36;;;;;;;10.23;4.60;;;23.40;66.50;;;;;;5076685;28;20371;-44
2021/07/07 04:28:06;;;;;;;4.75;4.00;;;23.40;66.30;;;;;;5075938;28;20044;-44
2021/07/07 04:30:32;;;;;;;6.63;3.73;;;23.50;66.20;;;;;;5076414;28;20031;-43
2021/07/07 04:32:58;;;;;;;4.18;3.65;;;23.50;66.20;;;;;;5075986;28;20020;-48
2021/07/07 04:35:23;;;;;;;4.65;3.75;;;23.50;66.30;;;;;;5076048;28;20040;-42
2021/07/07 04:37:50;;;;;;;5.68;3.65;;;23.50;66.50;;;;;;5075535;28;20037;-46
2021/07/07 04:40:16;;;;;;;12.82;3.90;;;23.60;66.30;;;;;;5076019;28;20048;-44
2021/07/07 04:42:42;;;;;;;5.50;4.20;;;23.70;66.20;;;;;;5076125;28;20037;-45
2021/07/07 04:45:09;;;;;;;4.13;3.40;;;23.70;65.90;;;;;;5076364;28;20431;-45
2021/07/07 04:47:35;;;;;;;4.22;3.20;;;23.70;65.80;;;;;;5075431;28;20120;-42
2021/07/07 04:50:07;;;;;;;6.47;3.55;;;23.80;65.70;;;;;;5076242;28;20052;-46
2021/07/07 04:52:33;;;;;;;4.60;3.90;;;23.80;65.60;;;;;;5075416;28;20024;-43
2021/07/07 04:54:59;;;;;;;6.28;3.60;;;23.80;65.30;;;;;;5075759;28;20078;-45
2021/07/07 04:57:24;;;;;;;4.90;3.60;;;23.80;65.40;;;;;;5075757;28;20059;-47
2021/07/07 04:59:50;;;;;;;4.25;2.97;;;23.80;65.40;;;;;;5075959;28;20431;-43
2021/07/07 05:02:15;;;;;;;6.13;3.22;;;23.80;65.10;;;;;;5075385;28;20085;-45
2021/07/07 05:04:41;;;;;;;8.18;3.28;;;23.80;64.90;;;;;;5074584;28;20043;-45
2021/07/07 05:07:07;;;;;;;4.13;3.13;;;23.90;64.90;;;;;;5075176;28;20028;-45
2021/07/07 05:09:32;;;;;;;6.60;3.33;;;23.90;65.00;;;;;;5075492;28;20029;-42
2021/07/07 05:11:58;;;;;;;5.22;3.58;;;23.90;65.10;;;;;;5075602;28;20321;-42
2021/07/07 05:14:24;;;;;;;6.80;3.40;;;23.90;64.80;;;;;;5075576;28;20297;-45
2021/07/07 05:16:49;;;;;;;5.90;3.20;;;23.90;64.80;;;;;;5073984;28;20040;-46
2021/07/07 05:19:15;;;;;;;3.45;3.15;;;23.90;64.90;;;;;;5075177;28;20095;-42
2021/07/07 05:21:42;;;;;;;6.03;3.95;;;23.90;65.10;;;;;;5075763;28;20111;-43
2021/07/07 05:24:08;;;;;;;5.15;3.83;;;23.90;65.20;;;;;;5074977;28;20024;-46
2021/07/07 05:26:34;;;;;;;4.97;3.58;;;23.90;64.90;;;;;;5075278;28;20025;-43
2021/07/07 05:29:00;;;;;;;5.07;3.00;;;23.90;65.20;;;;;;5075096;28;20033;-42
2021/07/07 05:31:26;;;;;;;4.57;3.30;;;23.90;65.10;;;;;;5075202;28;20035;-46
2021/07/07 05:33:53;;;;;;;3.70;3.28;;;23.90;65.00;;;;;;5074915;28;20031;-41
2021/07/07 05:36:19;;;;;;;7.03;3.40;;;23.90;64.70;;;;;;5075048;28;20498;-46
2021/07/07 05:38:45;;;;;;;16.08;4.30;;;24.00;64.70;;;;;;5074750;28;20107;-46
2021/07/07 05:41:10;;;;;;;3.83;3.22;;;24.00;64.70;;;;;;5075133;28;20076;-45
2021/07/07 05:43:36;;;;;;;5.40;3.50;;;24.00;64.90;;;;;;5074494;28;20020;-46
2021/07/07 05:46:02;;;;;;;7.00;3.30;;;24.00;65.00;;;;;;5074880;28;20059;-46
2021/07/07 05:48:28;;;;;;;4.10;3.35;;;24.10;65.00;;;;;;5074515;28;20040;-47
2021/07/07 05:50:54;;;;;;;26.60;5.05;;;24.10;64.60;;;;;;5075038;28;20102;-46
2021/07/07 05:53:20;;;;;;;6.03;3.40;;;24.10;64.30;;;;;;5074525;28;20021;-51
2021/07/07 05:55:46;;;;;;;7.95;3.55;;;24.10;64.50;;;;;;5075517;28;20111;-47
2021/07/07 05:58:12;;;;;;;9.10;3.70;;;24.20;64.50;;;;;;5074343;28;20120;-44
2021/07/07 06:00:38;;;;;;;7.35;3.90;;;24.30;64.70;;;;;;5075428;28;20036;-45
2021/07/07 06:03:03;;;;;;;10.05;4.07;;;24.40;64.80;;;;;;5074759;28;20427;-46
2021/07/07 06:05:30;;;;;;;6.53;3.40;;;24.40;64.70;;;;;;5075287;28;20063;-43
2021/07/07 06:07:56;;;;;;;6.72;3.75;;;24.50;64.70;;;;;;5074371;28;20135;-47
2021/07/07 06:10:24;;;;;;;4.82;3.17;;;24.60;64.40;;;;;;5075318;28;20051;-42
2021/07/07 06:12:50;;;;;;;3.78;2.90;;;24.60;64.10;;;;;;5074976;28;20070;-47
2021/07/07 06:15:16;;;;;;;5.22;3.13;;;24.60;63.80;;;;;;5075469;28;20025;-42
2021/07/07 06:17:43;;;;;;;5.47;3.42;;;24.70;63.90;;;;;;5074610;28;20040;-42
2021/07/07 06:20:11;;;;;;;3.72;3.17;;;24.70;64.30;;;;;;5075320;28;20036;-46
2021/07/07 06:22:37;;;;;;;6.70;3.65;;;24.70;64.40;;;;;;5074577;28;20028;-45
2021/07/07 06:25:05;;;;;;;5.13;3.70;;;24.70;64.30;;;;;;5074917;28;20036;-42
2021/07/07 06:27:31;;;;;;;6.88;3.53;;;24.70;64.20;;;;;;5074088;28;20033;-42
2021/07/07 06:29:57;;;;;;;4.43;3.20;;;24.80;64.40;;;;;;5075056;28;20108;-47
2021/07/07 06:32:22;;;;;;;5.80;3.08;;;24.80;64.00;;;;;;5077845;28;20036;-45
2021/07/07 06:34:48;;;;;;;5.22;3.38;;;24.90;63.80;;;;;;5078394;28;20028;-43
2021/07/07 06:37:14;;;;;;;5.20;3.40;;;24.90;63.20;;;;;;5078288;28;20032;-45
2021/07/07 06:39:40;;;;;;;4.82;3.17;;;25.00;63.20;;;;;;5078197;28;20389;-46
2021/07/07 06:42:06;;;;;;;8.20;3.58;;;25.10;63.20;;;;;;5077917;28;20052;-43
2021/07/07 06:44:32;;;;;;;5.63;3.13;;;25.20;63.00;;;;;;5077944;28;20033;-46
2021/07/07 06:46:57;;;;;;;6.85;3.47;;;25.20;62.90;;;;;;5078168;28;20087;-42
2021/07/07 06:49:23;;;;;;;3.92;3.20;;;25.30;62.50;;;;;;5078149;28;20071;-43
2021/07/07 06:51:49;;;;;;;5.07;3.17;;;25.40;62.70;;;;;;5077662;28;20036;-47
2021/07/07 06:54:16;;;;;;;8.25;3.75;;;25.60;62.40;;;;;;5077770;28;20354;-43
2021/07/07 06:56:41;;;;;;;3.72;2.97;;;25.60;61.20;;;;;;5077725;28;20040;-43
2021/07/07 06:59:07;;;;;;;11.23;4.03;;;25.70;61.10;;;;;;5077882;28;20024;-46
2021/07/07 07:01:33;;;;;;;7.95;3.90;;;25.70;60.60;;;;;;5077683;28;20348;-47
2021/07/07 07:03:58;;;;;;;9.02;3.40;;;25.70;60.60;;;;;;5077422;28;20070;-45
2021/07/07 07:06:24;;;;;;;4.57;3.55;;;25.70;60.90;;;;;;5078131;28;20036;-46
2021/07/07 07:08:50;;;;;;;9.98;3.92;;;25.70;61.20;;;;;;5077303;28;20282;-42
2021/07/07 07:11:18;;;;;;;4.70;3.90;;;25.70;60.90;;;;;;5077866;28;20441;-46
2021/07/07 07:13:45;;;;;;;5.95;4.18;;;25.70;61.00;;;;;;5077412;28;20028;-45
2021/07/07 07:16:11;;;;;;;6.25;3.78;;;25.70;61.30;;;;;;5077403;28;20029;-46
2021/07/07 07:18:37;;;;;;;5.85;3.78;;;25.70;61.40;;;;;;5074240;28;20025;-45
2021/07/07 07:21:03;;;;;;;10.90;7.10;;;25.70;61.60;;;;;;5077107;28;20127;-43
2021/07/07 07:23:29;;;;;;;6.32;4.07;;;25.80;61.90;;;;;;5077072;28;20020;-46
2021/07/07 07:25:54;;;;;;;4.85;3.60;;;25.80;62.20;;;;;;5077435;28;20333;-42
2021/07/07 07:28:20;;;;;;;6.03;3.65;;;25.90;62.20;;;;;;5077043;28;20025;-46
2021/07/07 07:30:46;;;;;;;4.20;3.63;;;26.00;61.60;;;;;;5077361;28;20354;-43
2021/07/07 07:33:12;;;;;;;3.53;3.03;;;26.00;61.50;;;;;;5076947;28;20040;-45
2021/07/07 07:35:37;;;;;;;5.45;3.63;;;26.10;61.10;;;;;;5076694;28;20044;-42
2021/07/07 07:38:11;;;;;;;3.53;3.22;;;26.10;61.30;;;;;;5076656;28;20111;-49
2021/07/07 07:40:38;;;;;;;3.97;3.15;;;26.20;61.20;;;;;;5076493;28;20455;-45
2021/07/07 07:43:05;;;;;;;10.52;3.72;;;26.30;61.00;;;;;;5075313;28;20036;-42
2021/07/07 07:45:31;;;;;;;3.97;3.20;;;26.30;60.20;;;;;;5076678;28;20115;-42
2021/07/07 07:47:57;;;;;;;3.85;3.08;;;26.40;60.00;;;;;;5076581;28;20425;-44
2021/07/07 07:50:24;;;;;;;5.35;3.33;;;26.50;60.10;;;;;;5076994;28;20024;-42
2021/07/07 07:52:50;;;;;;;10.05;5.30;;;26.60;59.60;;;;;;5076761;28;20109;-41
2021/07/07 07:55:16;;;;;;;7.30;4.03;;;26.60;59.60;;;;;;5076640;28;20024;-43
2021/07/07 07:57:42;;;;;;;7.15;5.38;;;26.70;59.10;;;;;;5075744;28;20134;-43
2021/07/07 08:00:10;;;;;;;5.32;4.20;;;26.80;59.20;;;;;;5076562;28;20413;-43
2021/07/07 08:02:36;;;;;;;11.63;8.48;;;26.80;58.70;;;;;;5076026;28;20072;-45
2021/07/07 08:05:02;;;;;;;10.13;7.50;;;26.90;58.90;;;;;;5076246;28;20113;-42
2021/07/07 08:07:28;;;;;;;4.00;3.28;;;27.00;59.00;;;;;;5076489;28;20032;-48
2021/07/07 08:09:55;;;;;;;4.18;3.33;;;27.10;58.40;;;;;;5076440;28;20043;-45
2021/07/07 08:12:22;;;;;;;6.78;4.45;;;27.10;57.10;;;;;;5075778;28;20027;-44
2021/07/07 08:14:50;;;;;;;5.07;3.75;;;27.10;57.50;;;;;;5076483;28;20067;-46
2021/07/07 08:17:17;;;;;;;7.78;4.07;;;27.20;57.20;;;;;;5075868;28;20040;-42
2021/07/07 08:19:43;;;;;;;7.43;5.00;;;27.20;57.10;;;;;;5075931;28;20025;-45
2021/07/07 08:22:08;;;;;;;5.57;3.47;;;27.20;56.40;;;;;;5076041;28;20032;-45
2021/07/07 08:24:34;;;;;;;5.13;3.58;;;27.20;56.20;;;;;;5075943;28;20025;-45
2021/07/07 08:27:01;;;;;;;3.50;2.90;;;27.30;56.60;;;;;;5076196;28;20058;-46
2021/07/07 08:29:27;;;;;;;5.13;3.90;;;27.30;56.30;;;;;;5075912;28;20024;-43
2021/07/07 08:31:52;;;;;;;4.57;3.45;;;27.30;55.90;;;;;;5075804;28;20297;-45
2021/07/07 08:34:18;;;;;;;6.50;2.92;;;27.30;55.60;;;;;;5075784;28;20028;-45
2021/07/07 08:36:44;;;;;;;4.03;3.17;;;27.20;56.30;;;;;;5075547;28;20028;-43
2021/07/07 08:39:10;;;;;;;6.57;4.00;;;27.20;56.00;;;;;;5075296;28;20027;-45
2021/07/07 08:41:38;;;;;;;9.60;4.15;;;27.30;56.50;;;;;;5075426;28;20056;-44
2021/07/07 08:44:06;;;;;;;6.22;4.28;;;27.30;56.40;;;;;;5074997;28;20036;-42
2021/07/07 08:46:32;;;;;;;7.55;3.50;;;27.40;56.50;;;;;;5075884;28;20036;-43
2021/07/07 08:48:58;;;;;;;4.68;3.60;;;27.40;55.90;;;;;;5075116;28;20039;-43
2021/07/07 08:51:24;;;;;;;5.47;3.58;;;27.50;56.10;;;;;;5075629;28;20209;-46
2021/07/07 08:53:49;;;;;;;5.45;3.40;;;27.50;56.90;;;;;;5074701;28;20343;-48
2021/07/07 08:56:15;;;;;;;6.47;3.95;;;27.50;56.00;;;;;;5075710;28;20109;-45
2021/07/07 08:58:41;;;;;;;5.68;3.72;;;27.60;56.20;;;;;;5074910;28;20024;-50
2021/07/07 09:01:07;;;;;;;5.25;3.20;;;27.70;56.00;;;;;;5075751;28;20032;-44
2021/07/07 09:03:32;;;;;;;10.82;4.93;;;27.70;56.10;;;;;;5074672;28;20074;-47
2021/07/07 09:06:04;;;;;;;6.70;3.30;;;27.80;55.60;;;;;;5075558;28;20032;-49
2021/07/07 09:08:32;;;;;;;7.57;3.65;;;27.80;55.70;;;;;;5074873;28;20024;-49
2021/07/07 09:11:19;;;;;;;4.03;3.42;;;27.80;54.80;;;;;;5075094;28;20024;-43
2021/07/07 09:13:46;;;;;;;6.93;3.20;;;27.90;54.20;;;;;;5074788;28;20051;-42
2021/07/07 09:16:16;;;;;;;4.93;3.33;;;28.00;54.20;;;;;;5075177;28;20111;-46
2021/07/07 09:18:43;;;;;;;3.85;3.20;;;28.00;54.10;;;;;;5074576;28;20033;-43
2021/07/07 09:21:26;;;;;;;6.18;3.22;;;28.00;54.30;;;;;;5075565;28;20033;-42
2021/07/07 09:23:54;;;;;;;10.15;3.30;;;28.10;53.90;;;;;;5074649;28;20116;-44
2021/07/07 09:26:31;;;;;;;3.97;3.10;;;28.10;53.80;;;;;;5075492;28;20110;-43
2021/07/07 09:28:57;;;;;;;5.95;2.90;;;28.10;54.20;;;;;;5074628;28;20033;-43
2021/07/07 09:31:37;;;;;;;4.43;3.20;;;28.10;54.00;;;;;;5075449;28;20028;-42
2021/07/07 09:34:17;;;;;;;4.60;3.05;;;28.20;53.10;;;;;;5074396;28;20425;-43
2021/07/07 09:36:46;;;;;;;6.80;3.53;;;28.20;53.50;;;;;;5074895;28;20481;-46
2021/07/07 09:39:13;;;;;;;5.60;3.08;;;28.20;53.30;;;;;;5074588;28;20199;-47
2021/07/07 09:41:39;;;;;;;7.63;3.60;;;28.20;53.50;;;;;;5074795;28;20053;-48
2021/07/07 09:44:06;;;;;;;4.22;3.20;;;28.20;53.80;;;;;;5074515;28;20252;-47
2021/07/07 09:46:34;;;;;;;5.10;3.28;;;28.30;53.80;;;;;;5075513;28;20045;-45
2021/07/07 09:49:01;;;;;;;5.53;3.03;;;28.40;54.00;;;;;;5075008;28;20024;-47
2021/07/07 09:51:27;;;;;;;6.60;2.92;;;28.50;54.40;;;;;;5075194;28;20040;-47
2021/07/07 09:53:52;;;;;;;4.28;2.65;;;28.50;54.00;;;;;;5074923;28;20025;-45
2021/07/07 09:56:18;;;;;;;4.35;3.10;;;28.60;54.00;;;;;;5075319;28;20050;-48
2021/07/07 09:58:44;;;;;;;5.15;2.97;;;28.70;53.60;;;;;;5074539;28;20036;-49
2021/07/07 10:01:09;;;;;;;4.82;2.83;;;28.80;53.40;;;;;;5074998;28;20029;-42
2021/07/07 10:03:35;;;;;;;8.90;3.10;;;28.90;53.10;;;;;;5074694;28;20074;-47
2021/07/07 10:06:02;;;;;;;5.95;3.10;;;29.00;53.70;;;;;;5075254;28;20102;-43
2021/07/07 10:08:30;;;;;;;5.07;3.40;;;29.00;53.30;;;;;;5077867;28;20418;-44
2021/07/07 10:10:58;;;;;;;9.85;3.08;;;29.10;53.30;;;;;;5078616;28;20036;-42
2021/07/07 10:13:27;;;;;;;13.35;3.50;;;29.20;53.50;;;;;;5078512;28;20043;-45
2021/07/07 10:15:53;;;;;;;3.28;2.80;;;29.20;52.80;;;;;;5078642;28;20317;-45
2021/07/07 10:18:19;;;;;;;6.55;3.10;;;29.40;53.00;;;;;;5078533;28;20111;-45
2021/07/07 10:20:46;;;;;;;4.78;2.97;;;29.40;52.60;;;;;;5078788;28;20036;-44
2021/07/07 10:23:13;;;;;;;9.55;3.10;;;29.40;52.10;;;;;;5078699;28;20173;-44
2021/07/07 10:25:40;;;;;;;4.82;3.08;;;29.40;52.00;;;;;;5078853;28;20312;-44
2021/07/07 10:28:13;;;;;;;4.97;3.10;;;29.40;51.80;;;;;;5077806;28;20063;-42
2021/07/07 10:30:47;;;;;;;4.78;2.70;;;29.40;52.30;;;;;;5078710;28;20393;-46
2021/07/07 10:33:12;;;;;;;6.40;2.95;;;29.50;51.80;;;;;;5078504;28;20044;-43
2021/07/07 10:35:39;;;;;;;5.63;2.83;;;29.50;51.70;;;;;;5078651;28;20029;-44
2021/07/07 10:38:06;;;;;;;5.30;2.80;;;29.60;51.40;;;;;;5077545;28;20045;-45
2021/07/07 10:40:36;;;;;;;6.68;3.10;;;29.60;51.10;;;;;;5078116;28;20052;-46
2021/07/07 10:43:02;;;;;;;3.75;3.03;;;29.70;51.40;;;;;;5078034;28;20367;-47
2021/07/07 10:45:41;;;;;;;4.07;2.80;;;29.80;51.30;;;;;;5078638;28;20098;-45
2021/07/07 10:48:31;;;;;;;4.93;3.00;;;29.90;51.70;;;;;;5077750;28;20028;-46
2021/07/07 10:51:21;;;;;;;7.05;2.92;;;29.90;51.60;;;;;;5078143;28;20040;-44
2021/07/07 10:53:47;;;;;;;4.70;2.88;;;29.90;51.70;;;;;;5077620;28;20141;-43
2021/07/07 10:56:13;;;;;;;7.90;2.53;;;29.90;51.80;;;;;;5078249;28;20227;-43
2021/07/07 10:58:40;;;;;;;4.13;2.53;;;29.90;51.30;;;;;;5077737;28;20425;-43
2021/07/07 11:01:35;;;;;;;5.45;2.70;;;30.00;50.60;;;;;;5078452;28;20063;-42
2021/07/07 11:04:02;;;;;;;5.03;2.20;;;30.00;50.60;;;;;;5077236;28;20067;-44
2021/07/07 11:06:42;;;;;;;5.28;2.70;;;30.10;49.60;;;;;;5078031;28;20021;-44
2021/07/07 11:09:17;;;;;;;5.90;2.90;;;30.20;49.90;;;;;;5075831;28;20032;-44
2021/07/07 11:11:47;;;;;;;14.43;3.08;;;30.40;50.40;;;;;;5071015;28;20068;-45
2021/07/07 11:14:19;;;;;;;4.97;2.67;;;30.50;48.30;;;;;;5057320;28;20036;-44
2021/07/07 11:16:50;;;;;;;6.50;2.90;;;30.60;49.10;;;;;;5056761;28;20453;-45
2021/07/07 11:19:40;;;;;;;4.47;2.55;;;30.60;49.10;;;;;;5056911;28;20112;-46
2021/07/07 11:22:06;;;;;;;;;;;30.70;48.60;;;;;;5057190;28;20102;-46
2021/07/07 11:24:32;;;;;;;2.72;2.10;;;30.60;49.20;;;;;;5057487;28;19958;-45
2021/07/07 11:27:00;;;;;;;5.35;2.42;;;30.70;48.70;;;;;;5057002;28;20036;-48
2021/07/07 11:29:25;;;;;;;4.85;2.35;;;30.70;48.80;;;;;;5057336;28;20025;-48
2021/07/07 11:31:51;;;;;;;5.72;2.22;;;30.80;49.00;;;;;;5055500;28;20036;-44
2021/07/07 11:34:16;;;;;;;7.63;3.13;;;30.90;48.80;;;;;;5056988;28;20028;-46
2021/07/07 11:36:42;;;;;;;3.35;2.38;;;31.00;48.60;;;;;;5056544;28;20095;-45
2021/07/07 11:39:08;;;;;;;4.40;2.92;;;31.10;48.60;;;;;;5056972;28;20032;-46
2021/07/07 11:41:34;;;;;;;6.55;2.80;;;31.20;47.90;;;;;;5056297;28;20384;-45
2021/07/07 11:44:00;;;;;;;7.93;2.67;;;31.40;48.50;;;;;;5056162;28;20028;-46
2021/07/07 11:46:31;;;;;;;3.95;2.67;;;31.50;46.90;;;;;;5056899;28;20120;-49
2021/07/07 11:49:08;;;;;;;5.22;3.13;;;31.70;46.90;;;;;;5056529;28;20056;-46
2021/07/07 11:51:38;;;;;;;7.95;2.97;;;31.90;46.70;;;;;;5056761;28;20031;-46
2021/07/07 11:54:04;;;;;;;3.17;2.33;;;32.10;46.40;;;;;;5059003;28;20321;-46
2021/07/07 11:56:30;;;;;;;7.65;2.92;;;32.20;46.10;;;;;;5058598;28;20117;-46
2021/07/07 11:58:58;;;;;;;5.53;2.85;;;32.30;45.40;;;;;;5058785;28;20336;-43
2021/07/07 12:01:32;;;;;;;9.95;6.18;;;32.50;44.20;;;;;;5056724;28;20040;-47
2021/07/07 12:04:02;;;;;;;5.32;3.05;;;32.60;45.00;;;;;;5056469;28;20047;-45
2021/07/07 12:06:33;;;;;;;13.77;4.05;;;32.70;43.90;;;;;;5057578;28;20475;-44
2021/07/07 12:09:00;;;;;;;6.22;3.30;;;32.80;43.30;;;;;;5076065;28;20316;-45
2021/07/07 12:11:27;;;;;;;5.35;3.75;;;33.00;43.50;;;;;;5076390;28;20405;-47
2021/07/07 12:13:54;;;;;;;7.05;3.25;;;33.20;43.60;;;;;;5071069;28;20082;-46
2021/07/07 12:16:19;;;;;;;5.60;4.25;;;33.30;42.90;;;;;;5069055;28;20021;-47
2021/07/07 12:18:48;;;;;;;6.97;3.45;;;33.50;43.80;;;;;;5067876;28;20044;-44
2021/07/07 12:21:34;;;;;;;5.05;2.60;;;33.60;42.80;;;;;;5058024;28;20033;-44
2021/07/07 12:24:03;;;;;;;24.30;13.02;;;33.80;42.40;;;;;;5075430;28;20301;-45
2021/07/07 12:26:32;;;;;;;8.00;3.70;;;34.00;42.20;;;;;;5076556;28;20038;-44
2021/07/07 12:29:00;;;;;;;9.38;3.92;;;34.10;41.50;;;;;;5075052;28;20384;-47
2021/07/07 12:31:27;;;;;;;7.80;3.20;;;34.20;41.80;;;;;;5057673;28;20025;-44
2021/07/07 12:33:54;;;;;;;6.13;3.40;;;34.40;41.60;;;;;;5055399;28;20080;-45
2021/07/07 12:36:27;;;;;;;9.88;3.67;;;34.40;41.20;;;;;;5056359;28;20329;-47
2021/07/07 12:38:56;;;;;;;2.92;2.35;;;34.40;41.10;;;;;;5055309;28;20041;-47
2021/07/07 12:41:35;;;;;;;5.35;2.60;;;34.30;41.30;;;;;;5055862;28;20127;-46
2021/07/07 12:44:12;;;;;;;5.53;2.50;;;34.40;41.60;;;;;;5055484;28;20040;-45
2021/07/07 12:46:56;;;;;;;12.02;3.10;;;34.40;41.60;;;;;;5054368;28;20045;-45
2021/07/07 12:49:40;;;;;;;6.85;3.65;;;34.50;42.00;;;;;;5056103;28;20032;-46